sensor_id;sensor_type;location;lat;lon;timestamp;P1;durP1;ratioP1;P2;durP2;ratioP2
11665;SDS011;5889;51.350;6.708;2022-12-07T00:01:25;33.57;;;21.07;;
11665;SDS011;5889;51.350;6.708;2022-12-07T00:03:54;35.93;;;20.57;;
11665;SDS011;5889;51.350;6.708;2022-12-07T00:06:27;32.13;;;19.90;;
11665;SDS011;5889;51.350;6.708;2022-12-07T00:08:54;29.70;;;19.47;;
11665;SDS011;5889;51.350;6.708;2022-12-07T00:11:21;36.03;;;20.10;;
11665;SDS011;5889;51.350;6.708;2022-12-07T00:13:50;33.73;;;21.47;;
11665;SDS011;5889;51.350;6.708;2022-12-07T00:16:20;38.83;;;21.43;;
11665;SDS011;5889;51.350;6.708;2022-12-07T00:18:48;38.43;;;21.50;;
11665;SDS011;5889;51.350;6.708;2022-12-07T00:21:15;33.23;;;21.43;;
11665;SDS011;5889;51.350;6.708;2022-12-07T00:23:46;35.80;;;22.37;;
11665;SDS011;5889;51.350;6.708;2022-12-07T00:26:15;37.57;;;22.47;;
11665;SDS011;5889;51.350;6.708;2022-12-07T00:28:44;35.30;;;21.20;;
11665;SDS011;5889;51.350;6.708;2022-12-07T00:31:12;34.47;;;21.63;;
11665;SDS011;5889;51.350;6.708;2022-12-07T00:33:40;36.17;;;23.30;;
11665;SDS011;5889;51.350;6.708;2022-12-07T00:36:08;37.37;;;23.23;;
11665;SDS011;5889;51.350;6.708;2022-12-07T00:38:37;37.93;;;23.50;;
11665;SDS011;5889;51.350;6.708;2022-12-07T00:41:07;37.63;;;22.50;;
11665;SDS011;5889;51.350;6.708;2022-12-07T00:43:36;35.23;;;21.77;;
11665;SDS011;5889;51.350;6.708;2022-12-07T00:46:03;37.80;;;22.23;;
11665;SDS011;5889;51.350;6.708;2022-12-07T00:48:31;35.57;;;22.77;;
11665;SDS011;5889;51.350;6.708;2022-12-07T00:50:58;37.67;;;23.17;;
11665;SDS011;5889;51.350;6.708;2022-12-07T00:53:25;36.40;;;23.80;;
11665;SDS011;5889;51.350;6.708;2022-12-07T00:55:52;38.50;;;24.60;;
11665;SDS011;5889;51.350;6.708;2022-12-07T00:58:22;40.70;;;24.67;;
11665;SDS011;5889;51.350;6.708;2022-12-07T01:00:49;37.33;;;23.37;;
11665;SDS011;5889;51.350;6.708;2022-12-07T01:03:17;42.73;;;24.70;;
11665;SDS011;5889;51.350;6.708;2022-12-07T01:05:50;38.30;;;22.73;;
11665;SDS011;5889;51.350;6.708;2022-12-07T01:08:17;42.17;;;24.97;;
11665;SDS011;5889;51.350;6.708;2022-12-07T01:10:44;39.70;;;24.17;;
11665;SDS011;5889;51.350;6.708;2022-12-07T01:13:12;43.97;;;24.23;;
11665;SDS011;5889;51.350;6.708;2022-12-07T01:15:40;38.17;;;24.17;;
11665;SDS011;5889;51.350;6.708;2022-12-07T01:18:08;37.07;;;23.03;;
11665;SDS011;5889;51.350;6.708;2022-12-07T01:20:35;39.70;;;25.13;;
11665;SDS011;5889;51.350;6.708;2022-12-07T01:23:02;36.27;;;21.83;;
11665;SDS011;5889;51.350;6.708;2022-12-07T01:25:29;41.20;;;24.40;;
11665;SDS011;5889;51.350;6.708;2022-12-07T01:27:56;41.33;;;23.97;;
11665;SDS011;5889;51.350;6.708;2022-12-07T01:30:23;38.70;;;23.40;;
11665;SDS011;5889;51.350;6.708;2022-12-07T01:32:51;40.17;;;23.87;;
11665;SDS011;5889;51.350;6.708;2022-12-07T01:35:18;38.67;;;25.10;;
11665;SDS011;5889;51.350;6.708;2022-12-07T01:37:45;37.60;;;24.23;;
11665;SDS011;5889;51.350;6.708;2022-12-07T01:40:12;37.40;;;23.03;;
11665;SDS011;5889;51.350;6.708;2022-12-07T01:42:39;40.87;;;24.07;;
11665;SDS011;5889;51.350;6.708;2022-12-07T01:48:11;40.23;;;24.03;;
11665;SDS011;5889;51.350;6.708;2022-12-07T01:50:41;36.83;;;24.67;;
11665;SDS011;5889;51.350;6.708;2022-12-07T01:53:11;41.07;;;25.47;;
11665;SDS011;5889;51.350;6.708;2022-12-07T01:55:40;41.93;;;24.97;;
11665;SDS011;5889;51.350;6.708;2022-12-07T01:58:09;46.63;;;25.90;;
11665;SDS011;5889;51.350;6.708;2022-12-07T02:00:38;37.87;;;23.23;;
11665;SDS011;5889;51.350;6.708;2022-12-07T02:03:07;41.30;;;25.40;;
11665;SDS011;5889;51.350;6.708;2022-12-07T02:05:40;40.47;;;24.97;;
11665;SDS011;5889;51.350;6.708;2022-12-07T02:08:08;36.90;;;24.33;;
11665;SDS011;5889;51.350;6.708;2022-12-07T02:10:37;39.70;;;23.20;;
11665;SDS011;5889;51.350;6.708;2022-12-07T02:13:05;41.23;;;23.27;;
11665;SDS011;5889;51.350;6.708;2022-12-07T02:15:39;38.50;;;22.97;;
11665;SDS011;5889;51.350;6.708;2022-12-07T02:18:16;36.10;;;22.10;;
11665;SDS011;5889;51.350;6.708;2022-12-07T02:20:50;39.80;;;22.23;;
11665;SDS011;5889;51.350;6.708;2022-12-07T02:23:47;43.33;;;22.33;;
11665;SDS011;5889;51.350;6.708;2022-12-07T02:29:37;38.47;;;23.53;;
11665;SDS011;5889;51.350;6.708;2022-12-07T02:32:11;39.50;;;24.90;;
11665;SDS011;5889;51.350;6.708;2022-12-07T02:34:43;36.40;;;23.00;;
11665;SDS011;5889;51.350;6.708;2022-12-07T02:37:18;41.03;;;23.53;;
11665;SDS011;5889;51.350;6.708;2022-12-07T02:39:55;42.87;;;25.20;;
11665;SDS011;5889;51.350;6.708;2022-12-07T02:42:26;42.87;;;24.17;;
11665;SDS011;5889;51.350;6.708;2022-12-07T02:44:59;38.33;;;24.20;;
11665;SDS011;5889;51.350;6.708;2022-12-07T02:47:28;43.47;;;25.30;;
11665;SDS011;5889;51.350;6.708;2022-12-07T02:49:58;39.03;;;24.13;;
11665;SDS011;5889;51.350;6.708;2022-12-07T02:52:25;40.60;;;23.47;;
11665;SDS011;5889;51.350;6.708;2022-12-07T02:54:51;40.50;;;24.87;;
11665;SDS011;5889;51.350;6.708;2022-12-07T02:57:31;41.20;;;24.87;;
11665;SDS011;5889;51.350;6.708;2022-12-07T03:00:13;43.03;;;26.03;;
11665;SDS011;5889;51.350;6.708;2022-12-07T03:02:46;43.23;;;25.77;;
11665;SDS011;5889;51.350;6.708;2022-12-07T03:05:36;39.57;;;24.97;;
11665;SDS011;5889;51.350;6.708;2022-12-07T03:08:19;43.43;;;26.03;;
11665;SDS011;5889;51.350;6.708;2022-12-07T03:10:54;44.30;;;26.43;;
11665;SDS011;5889;51.350;6.708;2022-12-07T03:13:25;44.33;;;26.83;;
11665;SDS011;5889;51.350;6.708;2022-12-07T03:16:00;45.13;;;28.47;;
11665;SDS011;5889;51.350;6.708;2022-12-07T03:18:33;46.53;;;26.50;;
11665;SDS011;5889;51.350;6.708;2022-12-07T03:21:05;44.80;;;27.13;;
11665;SDS011;5889;51.350;6.708;2022-12-07T03:23:37;45.63;;;26.57;;
11665;SDS011;5889;51.350;6.708;2022-12-07T03:26:06;46.83;;;28.03;;
11665;SDS011;5889;51.350;6.708;2022-12-07T03:28:42;44.83;;;27.50;;
11665;SDS011;5889;51.350;6.708;2022-12-07T03:31:14;45.10;;;25.97;;
11665;SDS011;5889;51.350;6.708;2022-12-07T03:33:46;41.90;;;26.67;;
11665;SDS011;5889;51.350;6.708;2022-12-07T03:36:19;45.17;;;25.33;;
11665;SDS011;5889;51.350;6.708;2022-12-07T03:38:53;45.37;;;27.77;;
11665;SDS011;5889;51.350;6.708;2022-12-07T03:41:24;44.57;;;26.47;;
11665;SDS011;5889;51.350;6.708;2022-12-07T03:43:53;46.27;;;27.23;;
11665;SDS011;5889;51.350;6.708;2022-12-07T03:46:24;46.23;;;27.00;;
11665;SDS011;5889;51.350;6.708;2022-12-07T03:49:00;40.43;;;25.17;;
11665;SDS011;5889;51.350;6.708;2022-12-07T03:51:37;44.27;;;26.67;;
11665;SDS011;5889;51.350;6.708;2022-12-07T03:54:09;46.13;;;26.67;;
11665;SDS011;5889;51.350;6.708;2022-12-07T03:56:40;45.47;;;25.23;;
11665;SDS011;5889;51.350;6.708;2022-12-07T03:59:09;46.27;;;27.03;;
11665;SDS011;5889;51.350;6.708;2022-12-07T04:01:39;46.00;;;26.17;;
11665;SDS011;5889;51.350;6.708;2022-12-07T04:04:08;44.33;;;28.33;;
11665;SDS011;5889;51.350;6.708;2022-12-07T04:06:35;43.13;;;26.03;;
11665;SDS011;5889;51.350;6.708;2022-12-07T04:09:02;51.20;;;28.13;;
11665;SDS011;5889;51.350;6.708;2022-12-07T04:11:29;48.53;;;27.20;;
11665;SDS011;5889;51.350;6.708;2022-12-07T04:13:56;47.57;;;27.17;;
11665;SDS011;5889;51.350;6.708;2022-12-07T04:16:54;47.43;;;26.63;;
11665;SDS011;5889;51.350;6.708;2022-12-07T04:19:23;49.70;;;26.47;;
11665;SDS011;5889;51.350;6.708;2022-12-07T04:21:51;46.77;;;26.93;;
11665;SDS011;5889;51.350;6.708;2022-12-07T04:24:18;49.80;;;27.43;;
11665;SDS011;5889;51.350;6.708;2022-12-07T04:26:45;49.67;;;28.00;;
11665;SDS011;5889;51.350;6.708;2022-12-07T04:29:13;46.57;;;27.67;;
11665;SDS011;5889;51.350;6.708;2022-12-07T04:31:40;50.47;;;27.57;;
11665;SDS011;5889;51.350;6.708;2022-12-07T04:34:09;40.83;;;26.00;;
11665;SDS011;5889;51.350;6.708;2022-12-07T04:36:36;42.17;;;23.00;;
11665;SDS011;5889;51.350;6.708;2022-12-07T04:39:04;38.97;;;24.30;;
11665;SDS011;5889;51.350;6.708;2022-12-07T04:41:32;44.90;;;26.50;;
11665;SDS011;5889;51.350;6.708;2022-12-07T04:44:00;36.00;;;23.00;;
11665;SDS011;5889;51.350;6.708;2022-12-07T04:46:30;43.20;;;23.57;;
11665;SDS011;5889;51.350;6.708;2022-12-07T04:48:57;37.67;;;23.33;;
11665;SDS011;5889;51.350;6.708;2022-12-07T04:51:26;39.33;;;23.23;;
11665;SDS011;5889;51.350;6.708;2022-12-07T04:53:55;39.73;;;22.33;;
11665;SDS011;5889;51.350;6.708;2022-12-07T04:56:22;36.10;;;22.40;;
11665;SDS011;5889;51.350;6.708;2022-12-07T04:58:50;37.77;;;21.70;;
11665;SDS011;5889;51.350;6.708;2022-12-07T05:01:22;35.50;;;22.17;;
11665;SDS011;5889;51.350;6.708;2022-12-07T05:03:49;36.57;;;21.73;;
11665;SDS011;5889;51.350;6.708;2022-12-07T05:06:16;37.20;;;20.67;;
11665;SDS011;5889;51.350;6.708;2022-12-07T05:08:45;34.03;;;21.13;;
11665;SDS011;5889;51.350;6.708;2022-12-07T05:11:12;35.00;;;20.70;;
11665;SDS011;5889;51.350;6.708;2022-12-07T05:14:00;33.10;;;19.60;;
11665;SDS011;5889;51.350;6.708;2022-12-07T05:16:26;36.70;;;19.93;;
11665;SDS011;5889;51.350;6.708;2022-12-07T05:18:54;35.20;;;20.87;;
11665;SDS011;5889;51.350;6.708;2022-12-07T05:21:21;35.30;;;19.10;;
11665;SDS011;5889;51.350;6.708;2022-12-07T05:23:49;36.13;;;20.40;;
11665;SDS011;5889;51.350;6.708;2022-12-07T05:26:16;35.23;;;20.73;;
11665;SDS011;5889;51.350;6.708;2022-12-07T05:28:43;33.23;;;19.53;;
11665;SDS011;5889;51.350;6.708;2022-12-07T05:31:10;34.37;;;19.23;;
11665;SDS011;5889;51.350;6.708;2022-12-07T05:33:37;33.60;;;18.90;;
11665;SDS011;5889;51.350;6.708;2022-12-07T05:36:04;30.93;;;18.93;;
11665;SDS011;5889;51.350;6.708;2022-12-07T05:38:32;29.20;;;18.00;;
11665;SDS011;5889;51.350;6.708;2022-12-07T05:41:01;30.03;;;17.80;;
11665;SDS011;5889;51.350;6.708;2022-12-07T05:43:29;28.00;;;16.90;;
11665;SDS011;5889;51.350;6.708;2022-12-07T05:45:56;28.73;;;17.13;;
11665;SDS011;5889;51.350;6.708;2022-12-07T05:48:23;28.50;;;17.70;;
11665;SDS011;5889;51.350;6.708;2022-12-07T05:50:50;25.07;;;16.40;;
11665;SDS011;5889;51.350;6.708;2022-12-07T05:53:18;29.40;;;16.37;;
11665;SDS011;5889;51.350;6.708;2022-12-07T05:55:45;27.43;;;17.20;;
11665;SDS011;5889;51.350;6.708;2022-12-07T05:58:13;29.67;;;16.13;;
11665;SDS011;5889;51.350;6.708;2022-12-07T06:00:58;28.57;;;17.17;;
11665;SDS011;5889;51.350;6.708;2022-12-07T06:03:25;27.17;;;14.80;;
11665;SDS011;5889;51.350;6.708;2022-12-07T06:05:52;25.87;;;15.93;;
11665;SDS011;5889;51.350;6.708;2022-12-07T06:08:19;25.83;;;15.27;;
11665;SDS011;5889;51.350;6.708;2022-12-07T06:10:46;25.50;;;15.50;;
11665;SDS011;5889;51.350;6.708;2022-12-07T06:13:37;29.27;;;16.43;;
11665;SDS011;5889;51.350;6.708;2022-12-07T06:16:03;26.37;;;15.63;;
11665;SDS011;5889;51.350;6.708;2022-12-07T06:18:30;26.77;;;14.50;;
11665;SDS011;5889;51.350;6.708;2022-12-07T06:20:57;28.37;;;14.93;;
11665;SDS011;5889;51.350;6.708;2022-12-07T06:23:24;29.60;;;15.17;;
11665;SDS011;5889;51.350;6.708;2022-12-07T06:25:51;29.50;;;15.47;;
11665;SDS011;5889;51.350;6.708;2022-12-07T06:28:18;28.03;;;15.50;;
11665;SDS011;5889;51.350;6.708;2022-12-07T06:30:46;28.90;;;16.00;;
11665;SDS011;5889;51.350;6.708;2022-12-07T06:33:13;29.43;;;15.23;;
11665;SDS011;5889;51.350;6.708;2022-12-07T06:35:40;33.57;;;16.07;;
11665;SDS011;5889;51.350;6.708;2022-12-07T06:38:07;29.73;;;14.60;;
11665;SDS011;5889;51.350;6.708;2022-12-07T06:40:34;27.10;;;13.87;;
11665;SDS011;5889;51.350;6.708;2022-12-07T06:43:01;27.13;;;14.17;;
11665;SDS011;5889;51.350;6.708;2022-12-07T06:45:27;28.07;;;14.33;;
11665;SDS011;5889;51.350;6.708;2022-12-07T06:47:56;31.27;;;13.67;;
11665;SDS011;5889;51.350;6.708;2022-12-07T06:50:23;17.60;;;12.50;;
11665;SDS011;5889;51.350;6.708;2022-12-07T06:52:50;23.30;;;13.83;;
11665;SDS011;5889;51.350;6.708;2022-12-07T06:55:17;22.53;;;13.40;;
11665;SDS011;5889;51.350;6.708;2022-12-07T06:57:44;21.37;;;12.90;;
11665;SDS011;5889;51.350;6.708;2022-12-07T07:00:12;20.97;;;13.17;;
11665;SDS011;5889;51.350;6.708;2022-12-07T07:02:39;23.47;;;13.07;;
11665;SDS011;5889;51.350;6.708;2022-12-07T07:05:08;21.70;;;13.43;;
11665;SDS011;5889;51.350;6.708;2022-12-07T07:07:35;24.27;;;13.37;;
11665;SDS011;5889;51.350;6.708;2022-12-07T07:10:02;25.17;;;12.70;;
11665;SDS011;5889;51.350;6.708;2022-12-07T07:12:29;22.97;;;15.07;;
11665;SDS011;5889;51.350;6.708;2022-12-07T07:14:56;22.93;;;13.07;;
11665;SDS011;5889;51.350;6.708;2022-12-07T07:17:23;20.73;;;12.70;;
11665;SDS011;5889;51.350;6.708;2022-12-07T07:19:50;23.47;;;12.40;;
11665;SDS011;5889;51.350;6.708;2022-12-07T07:22:18;20.00;;;12.30;;
11665;SDS011;5889;51.350;6.708;2022-12-07T07:24:45;19.33;;;11.77;;
11665;SDS011;5889;51.350;6.708;2022-12-07T07:27:12;23.20;;;12.70;;
11665;SDS011;5889;51.350;6.708;2022-12-07T07:29:39;23.23;;;12.30;;
11665;SDS011;5889;51.350;6.708;2022-12-07T07:32:06;19.63;;;12.27;;
11665;SDS011;5889;51.350;6.708;2022-12-07T07:34:33;20.10;;;11.30;;
11665;SDS011;5889;51.350;6.708;2022-12-07T07:37:00;22.10;;;11.73;;
11665;SDS011;5889;51.350;6.708;2022-12-07T07:39:28;20.30;;;10.67;;
11665;SDS011;5889;51.350;6.708;2022-12-07T07:41:55;18.00;;;11.10;;
11665;SDS011;5889;51.350;6.708;2022-12-07T07:44:22;19.97;;;11.43;;
11665;SDS011;5889;51.350;6.708;2022-12-07T07:46:49;23.13;;;11.93;;
11665;SDS011;5889;51.350;6.708;2022-12-07T07:49:16;20.57;;;12.03;;
11665;SDS011;5889;51.350;6.708;2022-12-07T07:51:43;22.40;;;11.70;;
11665;SDS011;5889;51.350;6.708;2022-12-07T07:54:10;19.67;;;11.90;;
11665;SDS011;5889;51.350;6.708;2022-12-07T07:56:38;18.80;;;12.70;;
11665;SDS011;5889;51.350;6.708;2022-12-07T07:59:05;22.63;;;12.27;;
11665;SDS011;5889;51.350;6.708;2022-12-07T08:01:32;24.40;;;11.67;;
11665;SDS011;5889;51.350;6.708;2022-12-07T08:03:58;20.23;;;12.37;;
11665;SDS011;5889;51.350;6.708;2022-12-07T08:06:25;20.43;;;12.07;;
11665;SDS011;5889;51.350;6.708;2022-12-07T08:08:52;21.40;;;12.07;;
11665;SDS011;5889;51.350;6.708;2022-12-07T08:11:19;19.10;;;12.87;;
11665;SDS011;5889;51.350;6.708;2022-12-07T08:13:47;22.57;;;11.97;;
11665;SDS011;5889;51.350;6.708;2022-12-07T08:16:15;21.73;;;12.23;;
11665;SDS011;5889;51.350;6.708;2022-12-07T08:18:42;20.60;;;11.80;;
11665;SDS011;5889;51.350;6.708;2022-12-07T08:21:10;19.50;;;11.80;;
11665;SDS011;5889;51.350;6.708;2022-12-07T08:23:38;25.67;;;11.50;;
11665;SDS011;5889;51.350;6.708;2022-12-07T08:26:06;17.90;;;12.23;;
11665;SDS011;5889;51.350;6.708;2022-12-07T08:28:33;18.13;;;11.10;;
11665;SDS011;5889;51.350;6.708;2022-12-07T08:31:02;21.00;;;11.50;;
11665;SDS011;5889;51.350;6.708;2022-12-07T08:33:31;18.63;;;11.27;;
11665;SDS011;5889;51.350;6.708;2022-12-07T08:36:00;19.10;;;12.07;;
11665;SDS011;5889;51.350;6.708;2022-12-07T08:38:27;19.43;;;12.07;;
11665;SDS011;5889;51.350;6.708;2022-12-07T08:40:54;21.83;;;12.67;;
11665;SDS011;5889;51.350;6.708;2022-12-07T08:43:21;24.00;;;13.80;;
11665;SDS011;5889;51.350;6.708;2022-12-07T08:45:48;21.57;;;12.70;;
11665;SDS011;5889;51.350;6.708;2022-12-07T08:48:24;22.73;;;12.37;;
11665;SDS011;5889;51.350;6.708;2022-12-07T08:50:52;23.57;;;12.73;;
11665;SDS011;5889;51.350;6.708;2022-12-07T08:53:18;21.27;;;12.40;;
11665;SDS011;5889;51.350;6.708;2022-12-07T08:55:46;18.33;;;11.73;;
11665;SDS011;5889;51.350;6.708;2022-12-07T08:58:13;20.97;;;12.50;;
11665;SDS011;5889;51.350;6.708;2022-12-07T09:00:40;20.57;;;12.13;;
11665;SDS011;5889;51.350;6.708;2022-12-07T09:03:07;19.67;;;12.90;;
11665;SDS011;5889;51.350;6.708;2022-12-07T09:05:36;19.20;;;12.00;;
11665;SDS011;5889;51.350;6.708;2022-12-07T09:08:03;20.27;;;13.50;;
11665;SDS011;5889;51.350;6.708;2022-12-07T09:10:30;18.90;;;11.93;;
11665;SDS011;5889;51.350;6.708;2022-12-07T09:12:57;23.00;;;13.30;;
11665;SDS011;5889;51.350;6.708;2022-12-07T09:15:25;22.47;;;12.60;;
11665;SDS011;5889;51.350;6.708;2022-12-07T09:17:52;23.00;;;12.80;;
11665;SDS011;5889;51.350;6.708;2022-12-07T09:20:19;22.47;;;12.33;;
11665;SDS011;5889;51.350;6.708;2022-12-07T09:22:48;20.60;;;12.60;;
11665;SDS011;5889;51.350;6.708;2022-12-07T09:25:15;14.83;;;11.40;;
11665;SDS011;5889;51.350;6.708;2022-12-07T09:27:42;19.33;;;11.97;;
11665;SDS011;5889;51.350;6.708;2022-12-07T09:30:09;19.67;;;11.37;;
11665;SDS011;5889;51.350;6.708;2022-12-07T09:32:36;22.53;;;12.87;;
11665;SDS011;5889;51.350;6.708;2022-12-07T09:35:03;21.10;;;12.60;;
11665;SDS011;5889;51.350;6.708;2022-12-07T09:37:31;20.57;;;11.60;;
11665;SDS011;5889;51.350;6.708;2022-12-07T09:40:01;19.10;;;10.97;;
11665;SDS011;5889;51.350;6.708;2022-12-07T09:42:31;18.97;;;11.30;;
11665;SDS011;5889;51.350;6.708;2022-12-07T09:45:02;20.00;;;11.03;;
11665;SDS011;5889;51.350;6.708;2022-12-07T09:47:32;18.73;;;11.07;;
11665;SDS011;5889;51.350;6.708;2022-12-07T09:50:02;18.50;;;10.03;;
11665;SDS011;5889;51.350;6.708;2022-12-07T09:52:32;18.60;;;10.37;;
11665;SDS011;5889;51.350;6.708;2022-12-07T09:54:59;16.77;;;9.93;;
11665;SDS011;5889;51.350;6.708;2022-12-07T09:57:28;16.00;;;9.43;;
11665;SDS011;5889;51.350;6.708;2022-12-07T10:00:00;18.63;;;9.93;;
11665;SDS011;5889;51.350;6.708;2022-12-07T10:02:34;16.23;;;10.07;;
11665;SDS011;5889;51.350;6.708;2022-12-07T10:05:03;15.60;;;9.80;;
11665;SDS011;5889;51.350;6.708;2022-12-07T10:07:32;17.93;;;11.33;;
11665;SDS011;5889;51.350;6.708;2022-12-07T10:10:02;18.67;;;10.50;;
11665;SDS011;5889;51.350;6.708;2022-12-07T10:12:31;16.77;;;11.83;;
11665;SDS011;5889;51.350;6.708;2022-12-07T10:15:21;18.67;;;11.83;;
11665;SDS011;5889;51.350;6.708;2022-12-07T10:17:49;18.27;;;12.50;;
11665;SDS011;5889;51.350;6.708;2022-12-07T10:20:26;23.33;;;14.60;;
11665;SDS011;5889;51.350;6.708;2022-12-07T10:22:54;26.43;;;15.90;;
11665;SDS011;5889;51.350;6.708;2022-12-07T10:25:25;27.23;;;16.00;;
11665;SDS011;5889;51.350;6.708;2022-12-07T10:30:46;25.07;;;14.07;;
11665;SDS011;5889;51.350;6.708;2022-12-07T10:33:27;21.10;;;13.17;;
11665;SDS011;5889;51.350;6.708;2022-12-07T10:36:01;22.83;;;12.30;;
11665;SDS011;5889;51.350;6.708;2022-12-07T10:38:44;17.87;;;10.67;;
11665;SDS011;5889;51.350;6.708;2022-12-07T10:41:14;19.20;;;10.77;;
11665;SDS011;5889;51.350;6.708;2022-12-07T10:43:48;17.53;;;10.70;;
11665;SDS011;5889;51.350;6.708;2022-12-07T10:52:16;14.50;;;8.53;;
11665;SDS011;5889;51.350;6.708;2022-12-07T10:54:52;15.43;;;9.07;;
11665;SDS011;5889;51.350;6.708;2022-12-07T10:57:39;14.10;;;7.53;;
11665;SDS011;5889;51.350;6.708;2022-12-07T11:00:17;9.33;;;7.17;;
11665;SDS011;5889;51.350;6.708;2022-12-07T11:05:52;11.43;;;7.10;;
11665;SDS011;5889;51.350;6.708;2022-12-07T11:08:26;13.07;;;7.63;;
11665;SDS011;5889;51.350;6.708;2022-12-07T11:11:06;9.40;;;6.50;;
11665;SDS011;5889;51.350;6.708;2022-12-07T11:13:42;12.30;;;6.13;;
11665;SDS011;5889;51.350;6.708;2022-12-07T11:16:24;16.73;;;6.87;;
11665;SDS011;5889;51.350;6.708;2022-12-07T11:19:05;10.87;;;6.77;;
11665;SDS011;5889;51.350;6.708;2022-12-07T11:21:43;14.20;;;6.20;;
11665;SDS011;5889;51.350;6.708;2022-12-07T11:24:16;11.63;;;6.50;;
11665;SDS011;5889;51.350;6.708;2022-12-07T11:26:48;9.90;;;6.00;;
11665;SDS011;5889;51.350;6.708;2022-12-07T11:29:37;11.57;;;5.97;;
11665;SDS011;5889;51.350;6.708;2022-12-07T11:32:15;11.37;;;5.33;;
11665;SDS011;5889;51.350;6.708;2022-12-07T11:34:50;9.50;;;5.27;;
11665;SDS011;5889;51.350;6.708;2022-12-07T11:37:29;13.60;;;5.03;;
11665;SDS011;5889;51.350;6.708;2022-12-07T11:40:00;11.80;;;4.80;;
11665;SDS011;5889;51.350;6.708;2022-12-07T11:42:31;10.33;;;5.57;;
11665;SDS011;5889;51.350;6.708;2022-12-07T11:45:10;14.23;;;4.70;;
11665;SDS011;5889;51.350;6.708;2022-12-07T11:47:41;9.57;;;4.67;;
11665;SDS011;5889;51.350;6.708;2022-12-07T11:50:17;13.37;;;4.90;;
11665;SDS011;5889;51.350;6.708;2022-12-07T11:52:54;7.73;;;4.20;;
11665;SDS011;5889;51.350;6.708;2022-12-07T11:55:26;8.70;;;4.90;;
11665;SDS011;5889;51.350;6.708;2022-12-07T11:58:01;16.10;;;4.63;;
11665;SDS011;5889;51.350;6.708;2022-12-07T12:00:33;10.43;;;4.50;;
11665;SDS011;5889;51.350;6.708;2022-12-07T12:03:01;10.83;;;4.33;;
11665;SDS011;5889;51.350;6.708;2022-12-07T12:05:34;10.57;;;3.83;;
11665;SDS011;5889;51.350;6.708;2022-12-07T12:08:03;7.43;;;4.10;;
11665;SDS011;5889;51.350;6.708;2022-12-07T12:10:40;8.40;;;3.50;;
11665;SDS011;5889;51.350;6.708;2022-12-07T12:16:34;8.53;;;3.73;;
11665;SDS011;5889;51.350;6.708;2022-12-07T12:19:34;7.77;;;3.47;;
11665;SDS011;5889;51.350;6.708;2022-12-07T12:22:10;8.13;;;3.97;;
11665;SDS011;5889;51.350;6.708;2022-12-07T12:24:41;9.23;;;3.30;;
11665;SDS011;5889;51.350;6.708;2022-12-07T12:27:15;8.03;;;3.50;;
11665;SDS011;5889;51.350;6.708;2022-12-07T12:29:50;10.40;;;3.90;;
11665;SDS011;5889;51.350;6.708;2022-12-07T12:32:22;9.17;;;3.67;;
11665;SDS011;5889;51.350;6.708;2022-12-07T12:34:58;6.70;;;3.53;;
11665;SDS011;5889;51.350;6.708;2022-12-07T12:37:44;12.10;;;3.90;;
11665;SDS011;5889;51.350;6.708;2022-12-07T12:40:37;11.23;;;3.93;;
11665;SDS011;5889;51.350;6.708;2022-12-07T12:49:15;10.67;;;4.40;;
11665;SDS011;5889;51.350;6.708;2022-12-07T12:55:29;11.30;;;4.30;;
11665;SDS011;5889;51.350;6.708;2022-12-07T12:58:25;6.80;;;4.00;;
11665;SDS011;5889;51.350;6.708;2022-12-07T13:04:03;9.37;;;4.03;;
11665;SDS011;5889;51.350;6.708;2022-12-07T13:06:48;11.30;;;5.20;;
11665;SDS011;5889;51.350;6.708;2022-12-07T13:09:19;10.57;;;4.30;;
11665;SDS011;5889;51.350;6.708;2022-12-07T13:11:48;12.87;;;4.90;;
11665;SDS011;5889;51.350;6.708;2022-12-07T13:14:41;10.37;;;4.20;;
11665;SDS011;5889;51.350;6.708;2022-12-07T13:23:13;13.17;;;4.43;;
11665;SDS011;5889;51.350;6.708;2022-12-07T13:25:46;11.37;;;3.67;;
11665;SDS011;5889;51.350;6.708;2022-12-07T13:28:18;10.33;;;3.63;;
11665;SDS011;5889;51.350;6.708;2022-12-07T13:30:50;9.27;;;2.93;;
11665;SDS011;5889;51.350;6.708;2022-12-07T13:33:27;9.33;;;2.40;;
11665;SDS011;5889;51.350;6.708;2022-12-07T13:35:56;9.27;;;2.63;;
11665;SDS011;5889;51.350;6.708;2022-12-07T13:38:27;7.00;;;2.73;;
11665;SDS011;5889;51.350;6.708;2022-12-07T13:41:03;7.53;;;2.53;;
11665;SDS011;5889;51.350;6.708;2022-12-07T13:43:43;6.10;;;2.40;;
11665;SDS011;5889;51.350;6.708;2022-12-07T13:46:26;7.60;;;2.63;;
11665;SDS011;5889;51.350;6.708;2022-12-07T13:49:00;7.70;;;2.40;;
11665;SDS011;5889;51.350;6.708;2022-12-07T13:51:29;9.77;;;2.87;;
11665;SDS011;5889;51.350;6.708;2022-12-07T13:54:06;6.60;;;2.73;;
11665;SDS011;5889;51.350;6.708;2022-12-07T13:56:36;11.17;;;2.53;;
11665;SDS011;5889;51.350;6.708;2022-12-07T13:59:04;7.77;;;3.37;;
11665;SDS011;5889;51.350;6.708;2022-12-07T14:01:36;8.07;;;2.83;;
11665;SDS011;5889;51.350;6.708;2022-12-07T14:04:19;10.20;;;2.67;;
11665;SDS011;5889;51.350;6.708;2022-12-07T14:06:57;5.50;;;2.63;;
11665;SDS011;5889;51.350;6.708;2022-12-07T14:09:26;8.37;;;2.73;;
11665;SDS011;5889;51.350;6.708;2022-12-07T14:11:55;7.67;;;2.40;;
11665;SDS011;5889;51.350;6.708;2022-12-07T14:14:24;10.50;;;2.37;;
11665;SDS011;5889;51.350;6.708;2022-12-07T14:16:58;7.87;;;2.97;;
11665;SDS011;5889;51.350;6.708;2022-12-07T14:22:23;9.57;;;2.70;;
11665;SDS011;5889;51.350;6.708;2022-12-07T14:27:47;7.33;;;2.93;;
11665;SDS011;5889;51.350;6.708;2022-12-07T14:30:18;13.07;;;3.40;;
11665;SDS011;5889;51.350;6.708;2022-12-07T14:32:45;10.03;;;3.10;;
11665;SDS011;5889;51.350;6.708;2022-12-07T14:35:16;8.13;;;3.10;;
11665;SDS011;5889;51.350;6.708;2022-12-07T14:37:46;7.73;;;3.23;;
11665;SDS011;5889;51.350;6.708;2022-12-07T14:40:16;10.50;;;3.67;;
11665;SDS011;5889;51.350;6.708;2022-12-07T14:42:44;5.63;;;3.10;;
11665;SDS011;5889;51.350;6.708;2022-12-07T14:45:13;12.03;;;4.73;;
11665;SDS011;5889;51.350;6.708;2022-12-07T14:47:42;12.57;;;4.43;;
11665;SDS011;5889;51.350;6.708;2022-12-07T14:50:11;10.80;;;4.83;;
11665;SDS011;5889;51.350;6.708;2022-12-07T14:52:39;13.23;;;5.10;;
11665;SDS011;5889;51.350;6.708;2022-12-07T14:55:14;14.27;;;6.37;;
11665;SDS011;5889;51.350;6.708;2022-12-07T14:57:44;6.83;;;3.83;;
11665;SDS011;5889;51.350;6.708;2022-12-07T15:00:13;9.97;;;4.13;;
11665;SDS011;5889;51.350;6.708;2022-12-07T15:02:42;11.63;;;4.73;;
11665;SDS011;5889;51.350;6.708;2022-12-07T15:05:09;11.90;;;4.77;;
11665;SDS011;5889;51.350;6.708;2022-12-07T15:07:36;10.13;;;4.80;;
11665;SDS011;5889;51.350;6.708;2022-12-07T15:10:03;11.50;;;4.60;;
11665;SDS011;5889;51.350;6.708;2022-12-07T15:12:33;8.03;;;4.60;;
11665;SDS011;5889;51.350;6.708;2022-12-07T15:15:00;11.10;;;5.60;;
11665;SDS011;5889;51.350;6.708;2022-12-07T15:17:27;16.23;;;5.80;;
11665;SDS011;5889;51.350;6.708;2022-12-07T15:19:54;11.27;;;5.23;;
11665;SDS011;5889;51.350;6.708;2022-12-07T15:22:21;14.30;;;6.53;;
11665;SDS011;5889;51.350;6.708;2022-12-07T15:24:48;16.27;;;6.33;;
11665;SDS011;5889;51.350;6.708;2022-12-07T15:27:15;11.03;;;4.83;;
11665;SDS011;5889;51.350;6.708;2022-12-07T15:29:43;9.63;;;4.97;;
11665;SDS011;5889;51.350;6.708;2022-12-07T15:32:10;7.20;;;4.70;;
11665;SDS011;5889;51.350;6.708;2022-12-07T15:34:37;9.50;;;5.27;;
11665;SDS011;5889;51.350;6.708;2022-12-07T15:37:04;8.73;;;4.93;;
11665;SDS011;5889;51.350;6.708;2022-12-07T15:39:31;10.97;;;4.60;;
11665;SDS011;5889;51.350;6.708;2022-12-07T15:41:58;7.40;;;4.00;;
11665;SDS011;5889;51.350;6.708;2022-12-07T15:44:25;9.60;;;4.73;;
11665;SDS011;5889;51.350;6.708;2022-12-07T15:47:11;7.27;;;3.90;;